sensor_id;sensor_type;location;lat;lon;timestamp;P1;durP1;ratioP1;P2;durP2;ratioP2
5795;SDS011;2924;51.458;7.046;2023-08-08T00:01:56;1.93;;;1.83;;
5795;SDS011;2924;51.458;7.046;2023-08-08T00:04:21;6.20;;;2.20;;
5795;SDS011;2924;51.458;7.046;2023-08-08T00:06:47;5.90;;;2.20;;
5795;SDS011;2924;51.458;7.046;2023-08-08T00:09:12;3.27;;;1.87;;
5795;SDS011;2924;51.458;7.046;2023-08-08T00:11:38;9.20;;;2.23;;
5795;SDS011;2924;51.458;7.046;2023-08-08T00:14:04;1.83;;;1.73;;
5795;SDS011;2924;51.458;7.046;2023-08-08T00:16:29;3.03;;;1.67;;
5795;SDS011;2924;51.458;7.046;2023-08-08T00:18:55;9.20;;;0.90;;
5795;SDS011;2924;51.458;7.046;2023-08-08T00:21:20;2.37;;;1.97;;
5795;SDS011;2924;51.458;7.046;2023-08-08T00:23:46;2.63;;;1.90;;
5795;SDS011;2924;51.458;7.046;2023-08-08T00:26:12;2.40;;;1.63;;
5795;SDS011;2924;51.458;7.046;2023-08-08T00:28:38;2.03;;;1.93;;
5795;SDS011;2924;51.458;7.046;2023-08-08T00:31:03;2.37;;;1.37;;
5795;SDS011;2924;51.458;7.046;2023-08-08T00:33:29;2.83;;;1.70;;
5795;SDS011;2924;51.458;7.046;2023-08-08T00:35:55;1.37;;;1.27;;
5795;SDS011;2924;51.458;7.046;2023-08-08T00:38:20;2.30;;;1.60;;
5795;SDS011;2924;51.458;7.046;2023-08-08T00:40:46;1.93;;;1.80;;
5795;SDS011;2924;51.458;7.046;2023-08-08T00:43:11;4.83;;;1.07;;
5795;SDS011;2924;51.458;7.046;2023-08-08T00:45:37;5.40;;;2.30;;
5795;SDS011;2924;51.458;7.046;2023-08-08T00:48:05;2.03;;;1.50;;
5795;SDS011;2924;51.458;7.046;2023-08-08T00:50:31;4.03;;;1.80;;
5795;SDS011;2924;51.458;7.046;2023-08-08T00:52:56;2.27;;;1.87;;
5795;SDS011;2924;51.458;7.046;2023-08-08T00:55:22;2.23;;;1.20;;
5795;SDS011;2924;51.458;7.046;2023-08-08T00:57:48;1.40;;;1.30;;
5795;SDS011;2924;51.458;7.046;2023-08-08T01:00:14;2.77;;;1.60;;
5795;SDS011;2924;51.458;7.046;2023-08-08T01:02:43;2.53;;;1.57;;
5795;SDS011;2924;51.458;7.046;2023-08-08T01:05:08;4.23;;;1.60;;
5795;SDS011;2924;51.458;7.046;2023-08-08T01:07:47;3.63;;;1.73;;
5795;SDS011;2924;51.458;7.046;2023-08-08T01:10:26;2.73;;;1.90;;
5795;SDS011;2924;51.458;7.046;2023-08-08T01:12:59;2.80;;;2.30;;
5795;SDS011;2924;51.458;7.046;2023-08-08T01:15:29;5.90;;;2.47;;
5795;SDS011;2924;51.458;7.046;2023-08-08T01:18:00;4.73;;;2.03;;
5795;SDS011;2924;51.458;7.046;2023-08-08T01:20:33;2.77;;;1.80;;
5795;SDS011;2924;51.458;7.046;2023-08-08T01:25:30;3.63;;;2.57;;
5795;SDS011;2924;51.458;7.046;2023-08-08T01:27:56;2.50;;;1.70;;
5795;SDS011;2924;51.458;7.046;2023-08-08T01:30:22;4.40;;;2.10;;
5795;SDS011;2924;51.458;7.046;2023-08-08T01:32:47;2.90;;;1.73;;
5795;SDS011;2924;51.458;7.046;2023-08-08T01:35:13;2.97;;;1.90;;
5795;SDS011;2924;51.458;7.046;2023-08-08T01:40:19;4.33;;;1.87;;
5795;SDS011;2924;51.458;7.046;2023-08-08T01:42:46;4.50;;;2.10;;
5795;SDS011;2924;51.458;7.046;2023-08-08T01:45:13;7.37;;;2.87;;
5795;SDS011;2924;51.458;7.046;2023-08-08T01:47:40;2.40;;;2.27;;
5795;SDS011;2924;51.458;7.046;2023-08-08T01:50:06;4.07;;;2.27;;
5795;SDS011;2924;51.458;7.046;2023-08-08T01:52:33;3.57;;;2.27;;
5795;SDS011;2924;51.458;7.046;2023-08-08T01:54:59;7.83;;;2.83;;
5795;SDS011;2924;51.458;7.046;2023-08-08T01:57:25;4.37;;;2.33;;
5795;SDS011;2924;51.458;7.046;2023-08-08T01:59:50;2.53;;;1.70;;
5795;SDS011;2924;51.458;7.046;2023-08-08T02:02:16;5.37;;;2.17;;
5795;SDS011;2924;51.458;7.046;2023-08-08T02:04:42;5.90;;;2.43;;
5795;SDS011;2924;51.458;7.046;2023-08-08T02:07:08;2.20;;;1.60;;
5795;SDS011;2924;51.458;7.046;2023-08-08T02:09:33;3.03;;;2.13;;
5795;SDS011;2924;51.458;7.046;2023-08-08T02:11:59;3.73;;;2.10;;
5795;SDS011;2924;51.458;7.046;2023-08-08T02:14:24;7.40;;;2.67;;
5795;SDS011;2924;51.458;7.046;2023-08-08T02:16:50;3.50;;;2.50;;
5795;SDS011;2924;51.458;7.046;2023-08-08T02:19:16;3.83;;;1.90;;
5795;SDS011;2924;51.458;7.046;2023-08-08T02:21:41;9.10;;;2.80;;
5795;SDS011;2924;51.458;7.046;2023-08-08T02:24:07;3.60;;;2.40;;
5795;SDS011;2924;51.458;7.046;2023-08-08T02:26:33;6.93;;;2.83;;
5795;SDS011;2924;51.458;7.046;2023-08-08T02:28:58;7.93;;;2.53;;
5795;SDS011;2924;51.458;7.046;2023-08-08T02:31:24;6.10;;;1.97;;
5795;SDS011;2924;51.458;7.046;2023-08-08T02:33:50;5.23;;;2.33;;
5795;SDS011;2924;51.458;7.046;2023-08-08T02:36:16;3.80;;;2.43;;
5795;SDS011;2924;51.458;7.046;2023-08-08T02:38:43;5.50;;;2.60;;
5795;SDS011;2924;51.458;7.046;2023-08-08T02:41:09;5.33;;;2.00;;
5795;SDS011;2924;51.458;7.046;2023-08-08T02:43:34;3.60;;;2.33;;
5795;SDS011;2924;51.458;7.046;2023-08-08T02:46:00;4.17;;;2.27;;
5795;SDS011;2924;51.458;7.046;2023-08-08T02:48:26;9.13;;;2.80;;
5795;SDS011;2924;51.458;7.046;2023-08-08T02:50:52;3.50;;;2.10;;
5795;SDS011;2924;51.458;7.046;2023-08-08T02:53:17;6.33;;;3.10;;
5795;SDS011;2924;51.458;7.046;2023-08-08T02:55:43;4.57;;;2.00;;
5795;SDS011;2924;51.458;7.046;2023-08-08T02:58:09;6.57;;;2.73;;
5795;SDS011;2924;51.458;7.046;2023-08-08T03:00:34;4.30;;;2.53;;
5795;SDS011;2924;51.458;7.046;2023-08-08T03:03:00;4.10;;;2.23;;
5795;SDS011;2924;51.458;7.046;2023-08-08T03:05:25;5.00;;;2.20;;
5795;SDS011;2924;51.458;7.046;2023-08-08T03:07:51;4.00;;;1.97;;
5795;SDS011;2924;51.458;7.046;2023-08-08T03:10:16;5.03;;;3.00;;
5795;SDS011;2924;51.458;7.046;2023-08-08T03:12:42;7.83;;;2.70;;
5795;SDS011;2924;51.458;7.046;2023-08-08T03:15:08;5.03;;;2.73;;
5795;SDS011;2924;51.458;7.046;2023-08-08T03:17:33;5.10;;;2.80;;
5795;SDS011;2924;51.458;7.046;2023-08-08T03:20:00;3.00;;;2.50;;
5795;SDS011;2924;51.458;7.046;2023-08-08T03:22:26;5.03;;;2.77;;
5795;SDS011;2924;51.458;7.046;2023-08-08T03:24:51;7.40;;;2.73;;
5795;SDS011;2924;51.458;7.046;2023-08-08T03:27:17;4.73;;;2.83;;
5795;SDS011;2924;51.458;7.046;2023-08-08T03:29:42;4.40;;;3.83;;
5795;SDS011;2924;51.458;7.046;2023-08-08T03:32:08;14.57;;;4.07;;
5795;SDS011;2924;51.458;7.046;2023-08-08T03:34:33;17.70;;;3.70;;
5795;SDS011;2924;51.458;7.046;2023-08-08T03:36:59;7.80;;;3.80;;
5795;SDS011;2924;51.458;7.046;2023-08-08T03:39:25;12.20;;;5.03;;
5795;SDS011;2924;51.458;7.046;2023-08-08T03:41:51;13.67;;;4.50;;
5795;SDS011;2924;51.458;7.046;2023-08-08T03:44:17;7.67;;;4.50;;
5795;SDS011;2924;51.458;7.046;2023-08-08T03:46:42;9.17;;;4.50;;
5795;SDS011;2924;51.458;7.046;2023-08-08T03:49:08;7.97;;;4.30;;
5795;SDS011;2924;51.458;7.046;2023-08-08T03:51:33;8.23;;;4.07;;
5795;SDS011;2924;51.458;7.046;2023-08-08T03:53:59;16.50;;;5.30;;
5795;SDS011;2924;51.458;7.046;2023-08-08T03:56:24;13.33;;;4.40;;
5795;SDS011;2924;51.458;7.046;2023-08-08T03:58:50;15.10;;;5.30;;
5795;SDS011;2924;51.458;7.046;2023-08-08T04:01:16;9.63;;;5.07;;
5795;SDS011;2924;51.458;7.046;2023-08-08T04:03:41;9.10;;;5.23;;
5795;SDS011;2924;51.458;7.046;2023-08-08T04:06:07;12.50;;;4.70;;
5795;SDS011;2924;51.458;7.046;2023-08-08T04:08:32;9.90;;;5.30;;
5795;SDS011;2924;51.458;7.046;2023-08-08T04:10:58;12.13;;;5.90;;
5795;SDS011;2924;51.458;7.046;2023-08-08T04:13:23;10.80;;;5.13;;
5795;SDS011;2924;51.458;7.046;2023-08-08T04:15:49;7.00;;;4.77;;
5795;SDS011;2924;51.458;7.046;2023-08-08T04:18:16;10.07;;;5.60;;
5795;SDS011;2924;51.458;7.046;2023-08-08T04:20:42;9.87;;;4.60;;
5795;SDS011;2924;51.458;7.046;2023-08-08T04:23:10;8.43;;;5.70;;
5795;SDS011;2924;51.458;7.046;2023-08-08T04:25:35;10.20;;;5.50;;
5795;SDS011;2924;51.458;7.046;2023-08-08T04:28:01;14.03;;;5.77;;
5795;SDS011;2924;51.458;7.046;2023-08-08T04:30:26;10.67;;;5.23;;
5795;SDS011;2924;51.458;7.046;2023-08-08T04:32:52;16.27;;;6.60;;
5795;SDS011;2924;51.458;7.046;2023-08-08T04:35:18;14.20;;;6.10;;
5795;SDS011;2924;51.458;7.046;2023-08-08T04:37:43;8.63;;;5.50;;
5795;SDS011;2924;51.458;7.046;2023-08-08T04:40:09;11.90;;;6.30;;
5795;SDS011;2924;51.458;7.046;2023-08-08T04:42:35;14.23;;;5.73;;
5795;SDS011;2924;51.458;7.046;2023-08-08T04:45:00;15.03;;;5.77;;
5795;SDS011;2924;51.458;7.046;2023-08-08T04:47:26;10.23;;;6.00;;
5795;SDS011;2924;51.458;7.046;2023-08-08T04:49:51;18.40;;;6.40;;
5795;SDS011;2924;51.458;7.046;2023-08-08T04:52:17;11.20;;;7.43;;
5795;SDS011;2924;51.458;7.046;2023-08-08T04:54:42;14.10;;;6.83;;
5795;SDS011;2924;51.458;7.046;2023-08-08T04:57:09;13.47;;;7.47;;
5795;SDS011;2924;51.458;7.046;2023-08-08T04:59:34;18.27;;;8.73;;
5795;SDS011;2924;51.458;7.046;2023-08-08T05:02:00;18.07;;;9.33;;
5795;SDS011;2924;51.458;7.046;2023-08-08T05:04:25;17.80;;;8.00;;
5795;SDS011;2924;51.458;7.046;2023-08-08T05:06:51;15.13;;;8.70;;
5795;SDS011;2924;51.458;7.046;2023-08-08T05:09:17;14.50;;;8.20;;
5795;SDS011;2924;51.458;7.046;2023-08-08T05:11:42;23.20;;;9.47;;
5795;SDS011;2924;51.458;7.046;2023-08-08T05:14:08;20.33;;;10.27;;
5795;SDS011;2924;51.458;7.046;2023-08-08T05:16:33;15.23;;;8.40;;
5795;SDS011;2924;51.458;7.046;2023-08-08T05:18:59;14.67;;;8.97;;
5795;SDS011;2924;51.458;7.046;2023-08-08T05:21:24;15.40;;;8.90;;
5795;SDS011;2924;51.458;7.046;2023-08-08T05:23:50;21.93;;;10.27;;
5795;SDS011;2924;51.458;7.046;2023-08-08T05:26:16;22.60;;;11.97;;
5795;SDS011;2924;51.458;7.046;2023-08-08T05:28:42;25.47;;;10.77;;
5795;SDS011;2924;51.458;7.046;2023-08-08T05:31:08;17.93;;;10.50;;
5795;SDS011;2924;51.458;7.046;2023-08-08T05:33:34;21.83;;;12.10;;
5795;SDS011;2924;51.458;7.046;2023-08-08T05:35:59;17.37;;;10.60;;
5795;SDS011;2924;51.458;7.046;2023-08-08T05:38:25;20.70;;;10.23;;
5795;SDS011;2924;51.458;7.046;2023-08-08T05:40:50;30.20;;;12.60;;
5795;SDS011;2924;51.458;7.046;2023-08-08T05:43:16;17.23;;;11.10;;
5795;SDS011;2924;51.458;7.046;2023-08-08T05:45:43;22.40;;;12.50;;
5795;SDS011;2924;51.458;7.046;2023-08-08T05:48:09;24.30;;;12.23;;
5795;SDS011;2924;51.458;7.046;2023-08-08T05:50:37;29.53;;;11.47;;
5795;SDS011;2924;51.458;7.046;2023-08-08T05:53:03;25.43;;;13.17;;
5795;SDS011;2924;51.458;7.046;2023-08-08T05:55:29;23.40;;;13.23;;
5795;SDS011;2924;51.458;7.046;2023-08-08T05:57:55;22.80;;;11.70;;
5795;SDS011;2924;51.458;7.046;2023-08-08T06:00:20;29.63;;;12.07;;
5795;SDS011;2924;51.458;7.046;2023-08-08T06:02:46;24.20;;;12.90;;
5795;SDS011;2924;51.458;7.046;2023-08-08T06:05:11;18.53;;;12.80;;
5795;SDS011;2924;51.458;7.046;2023-08-08T06:07:37;38.67;;;14.17;;
5795;SDS011;2924;51.458;7.046;2023-08-08T06:10:04;34.00;;;15.70;;
5795;SDS011;2924;51.458;7.046;2023-08-08T06:12:30;28.30;;;16.40;;
5795;SDS011;2924;51.458;7.046;2023-08-08T06:14:56;16.73;;;12.17;;
5795;SDS011;2924;51.458;7.046;2023-08-08T06:17:21;26.73;;;12.57;;
5795;SDS011;2924;51.458;7.046;2023-08-08T06:19:48;20.40;;;12.10;;
5795;SDS011;2924;51.458;7.046;2023-08-08T06:22:15;18.03;;;13.47;;
5795;SDS011;2924;51.458;7.046;2023-08-08T06:24:41;28.60;;;13.50;;
5795;SDS011;2924;51.458;7.046;2023-08-08T06:27:06;26.77;;;13.90;;
5795;SDS011;2924;51.458;7.046;2023-08-08T06:29:32;27.03;;;13.40;;
5795;SDS011;2924;51.458;7.046;2023-08-08T06:31:57;30.90;;;11.40;;
5795;SDS011;2924;51.458;7.046;2023-08-08T06:34:23;26.50;;;13.20;;
5795;SDS011;2924;51.458;7.046;2023-08-08T06:36:48;21.30;;;11.67;;
5795;SDS011;2924;51.458;7.046;2023-08-08T06:39:14;23.10;;;11.97;;
5795;SDS011;2924;51.458;7.046;2023-08-08T06:41:40;24.03;;;13.00;;
5795;SDS011;2924;51.458;7.046;2023-08-08T06:44:07;30.57;;;13.03;;
5795;SDS011;2924;51.458;7.046;2023-08-08T06:46:33;34.80;;;12.13;;
5795;SDS011;2924;51.458;7.046;2023-08-08T06:48:59;28.83;;;14.70;;
5795;SDS011;2924;51.458;7.046;2023-08-08T06:51:26;29.10;;;13.37;;
5795;SDS011;2924;51.458;7.046;2023-08-08T06:53:52;22.03;;;13.77;;
5795;SDS011;2924;51.458;7.046;2023-08-08T06:56:17;24.30;;;13.70;;
5795;SDS011;2924;51.458;7.046;2023-08-08T06:58:43;22.40;;;12.57;;
5795;SDS011;2924;51.458;7.046;2023-08-08T07:01:09;31.33;;;12.50;;
5795;SDS011;2924;51.458;7.046;2023-08-08T07:03:35;24.67;;;12.43;;
5795;SDS011;2924;51.458;7.046;2023-08-08T07:06:01;25.27;;;13.60;;
5795;SDS011;2924;51.458;7.046;2023-08-08T07:08:27;16.50;;;11.83;;
5795;SDS011;2924;51.458;7.046;2023-08-08T07:10:54;32.50;;;14.70;;
5795;SDS011;2924;51.458;7.046;2023-08-08T07:13:21;22.47;;;14.43;;
5795;SDS011;2924;51.458;7.046;2023-08-08T07:15:47;29.33;;;13.90;;
5795;SDS011;2924;51.458;7.046;2023-08-08T07:18:12;27.77;;;14.63;;
5795;SDS011;2924;51.458;7.046;2023-08-08T07:20:38;29.40;;;14.23;;
5795;SDS011;2924;51.458;7.046;2023-08-08T07:23:04;26.13;;;15.03;;
5795;SDS011;2924;51.458;7.046;2023-08-08T07:25:29;25.50;;;14.07;;
5795;SDS011;2924;51.458;7.046;2023-08-08T07:27:55;25.17;;;13.13;;
5795;SDS011;2924;51.458;7.046;2023-08-08T07:30:20;22.63;;;10.90;;
5795;SDS011;2924;51.458;7.046;2023-08-08T07:32:46;18.03;;;9.77;;
5795;SDS011;2924;51.458;7.046;2023-08-08T07:35:12;16.30;;;9.50;;
5795;SDS011;2924;51.458;7.046;2023-08-08T07:37:37;14.23;;;8.13;;
5795;SDS011;2924;51.458;7.046;2023-08-08T07:40:12;19.73;;;9.37;;
5795;SDS011;2924;51.458;7.046;2023-08-08T07:42:48;16.07;;;9.50;;
5795;SDS011;2924;51.458;7.046;2023-08-08T07:45:14;16.17;;;8.40;;
5795;SDS011;2924;51.458;7.046;2023-08-08T07:47:40;15.00;;;8.33;;
5795;SDS011;2924;51.458;7.046;2023-08-08T07:50:06;20.27;;;9.37;;
5795;SDS011;2924;51.458;7.046;2023-08-08T07:52:35;15.13;;;7.20;;
5795;SDS011;2924;51.458;7.046;2023-08-08T07:55:02;16.57;;;6.90;;
5795;SDS011;2924;51.458;7.046;2023-08-08T07:57:28;18.23;;;6.50;;
5795;SDS011;2924;51.458;7.046;2023-08-08T07:59:55;10.93;;;4.97;;
5795;SDS011;2924;51.458;7.046;2023-08-08T08:02:21;13.90;;;5.00;;
5795;SDS011;2924;51.458;7.046;2023-08-08T08:04:46;9.70;;;4.60;;
5795;SDS011;2924;51.458;7.046;2023-08-08T08:07:12;13.17;;;4.80;;
5795;SDS011;2924;51.458;7.046;2023-08-08T08:09:38;16.83;;;5.20;;
5795;SDS011;2924;51.458;7.046;2023-08-08T08:12:07;10.40;;;4.23;;
5795;SDS011;2924;51.458;7.046;2023-08-08T08:14:32;12.77;;;6.03;;
5795;SDS011;2924;51.458;7.046;2023-08-08T08:16:58;8.23;;;4.50;;
5795;SDS011;2924;51.458;7.046;2023-08-08T08:19:24;11.37;;;4.90;;
5795;SDS011;2924;51.458;7.046;2023-08-08T08:21:49;14.80;;;4.30;;
5795;SDS011;2924;51.458;7.046;2023-08-08T08:24:15;14.70;;;5.07;;
5795;SDS011;2924;51.458;7.046;2023-08-08T08:26:40;16.37;;;5.57;;
5795;SDS011;2924;51.458;7.046;2023-08-08T08:29:06;10.53;;;4.07;;
5795;SDS011;2924;51.458;7.046;2023-08-08T08:31:32;15.20;;;4.70;;
5795;SDS011;2924;51.458;7.046;2023-08-08T08:33:57;11.27;;;3.40;;
5795;SDS011;2924;51.458;7.046;2023-08-08T08:36:23;6.07;;;2.70;;
5795;SDS011;2924;51.458;7.046;2023-08-08T08:38:51;10.90;;;3.37;;
5795;SDS011;2924;51.458;7.046;2023-08-08T08:41:17;12.23;;;3.33;;
5795;SDS011;2924;51.458;7.046;2023-08-08T08:43:45;5.87;;;2.53;;
5795;SDS011;2924;51.458;7.046;2023-08-08T08:46:11;9.00;;;2.50;;
5795;SDS011;2924;51.458;7.046;2023-08-08T08:48:41;10.70;;;3.07;;
5795;SDS011;2924;51.458;7.046;2023-08-08T08:51:07;7.47;;;2.10;;
5795;SDS011;2924;51.458;7.046;2023-08-08T08:53:33;13.00;;;3.30;;
5795;SDS011;2924;51.458;7.046;2023-08-08T08:56:03;6.40;;;3.40;;
5795;SDS011;2924;51.458;7.046;2023-08-08T08:58:29;4.30;;;2.73;;
5795;SDS011;2924;51.458;7.046;2023-08-08T09:00:55;8.57;;;2.60;;
5795;SDS011;2924;51.458;7.046;2023-08-08T09:03:23;8.33;;;2.60;;
5795;SDS011;2924;51.458;7.046;2023-08-08T09:05:49;8.37;;;2.83;;
5795;SDS011;2924;51.458;7.046;2023-08-08T09:08:16;14.87;;;2.90;;
5795;SDS011;2924;51.458;7.046;2023-08-08T09:10:41;7.67;;;2.27;;
5795;SDS011;2924;51.458;7.046;2023-08-08T09:13:07;4.20;;;1.80;;
5795;SDS011;2924;51.458;7.046;2023-08-08T09:15:33;6.00;;;2.10;;
5795;SDS011;2924;51.458;7.046;2023-08-08T09:17:59;4.73;;;2.10;;
5795;SDS011;2924;51.458;7.046;2023-08-08T09:20:26;7.00;;;2.13;;
5795;SDS011;2924;51.458;7.046;2023-08-08T09:22:55;8.53;;;2.50;;
5795;SDS011;2924;51.458;7.046;2023-08-08T09:25:21;8.00;;;2.47;;
5795;SDS011;2924;51.458;7.046;2023-08-08T09:27:48;6.93;;;1.97;;
5795;SDS011;2924;51.458;7.046;2023-08-08T09:30:15;5.00;;;2.13;;
5795;SDS011;2924;51.458;7.046;2023-08-08T09:32:42;9.23;;;2.23;;
5795;SDS011;2924;51.458;7.046;2023-08-08T09:35:09;4.73;;;1.90;;
5795;SDS011;2924;51.458;7.046;2023-08-08T09:37:35;5.17;;;2.20;;
5795;SDS011;2924;51.458;7.046;2023-08-08T09:40:02;2.47;;;1.90;;
5795;SDS011;2924;51.458;7.046;2023-08-08T09:42:30;11.03;;;2.57;;
5795;SDS011;2924;51.458;7.046;2023-08-08T09:44:56;10.77;;;2.50;;
5795;SDS011;2924;51.458;7.046;2023-08-08T09:47:22;4.57;;;1.67;;
5795;SDS011;2924;51.458;7.046;2023-08-08T09:49:49;7.53;;;2.67;;
5795;SDS011;2924;51.458;7.046;2023-08-08T09:52:15;6.77;;;2.33;;
5795;SDS011;2924;51.458;7.046;2023-08-08T09:54:41;4.23;;;2.00;;
5795;SDS011;2924;51.458;7.046;2023-08-08T09:57:07;8.43;;;2.30;;
5795;SDS011;2924;51.458;7.046;2023-08-08T09:59:33;6.30;;;2.10;;
5795;SDS011;2924;51.458;7.046;2023-08-08T10:02:00;6.80;;;2.30;;
5795;SDS011;2924;51.458;7.046;2023-08-08T10:04:26;8.73;;;2.80;;
5795;SDS011;2924;51.458;7.046;2023-08-08T10:06:52;6.17;;;2.03;;
5795;SDS011;2924;51.458;7.046;2023-08-08T10:09:17;8.70;;;2.03;;
5795;SDS011;2924;51.458;7.046;2023-08-08T10:11:43;14.30;;;3.10;;
5795;SDS011;2924;51.458;7.046;2023-08-08T10:14:10;4.20;;;2.03;;
5795;SDS011;2924;51.458;7.046;2023-08-08T10:16:39;5.00;;;1.93;;
5795;SDS011;2924;51.458;7.046;2023-08-08T10:19:06;10.13;;;2.07;;
5795;SDS011;2924;51.458;7.046;2023-08-08T10:21:33;3.47;;;1.90;;
5795;SDS011;2924;51.458;7.046;2023-08-08T10:24:06;12.90;;;1.87;;
5795;SDS011;2924;51.458;7.046;2023-08-08T10:26:33;7.47;;;2.20;;
5795;SDS011;2924;51.458;7.046;2023-08-08T10:29:17;5.13;;;2.53;;
5795;SDS011;2924;51.458;7.046;2023-08-08T10:31:50;3.77;;;2.10;;
5795;SDS011;2924;51.458;7.046;2023-08-08T10:34:26;7.93;;;1.80;;
5795;SDS011;2924;51.458;7.046;2023-08-08T10:37:04;9.30;;;2.97;;
5795;SDS011;2924;51.458;7.046;2023-08-08T10:39:34;4.97;;;2.47;;
5795;SDS011;2924;51.458;7.046;2023-08-08T10:42:00;6.20;;;2.33;;
5795;SDS011;2924;51.458;7.046;2023-08-08T10:44:29;8.77;;;2.27;;
5795;SDS011;2924;51.458;7.046;2023-08-08T10:46:55;6.10;;;2.60;;
5795;SDS011;2924;51.458;7.046;2023-08-08T10:49:21;6.03;;;1.70;;
5795;SDS011;2924;51.458;7.046;2023-08-08T10:51:48;9.40;;;2.70;;
5795;SDS011;2924;51.458;7.046;2023-08-08T10:54:22;5.23;;;1.83;;
5795;SDS011;2924;51.458;7.046;2023-08-08T10:56:53;10.50;;;1.80;;
5795;SDS011;2924;51.458;7.046;2023-08-08T10:59:25;5.57;;;2.00;;
5795;SDS011;2924;51.458;7.046;2023-08-08T11:02:12;5.47;;;2.30;;
5795;SDS011;2924;51.458;7.046;2023-08-08T11:04:39;4.77;;;2.00;;
5795;SDS011;2924;51.458;7.046;2023-08-08T11:07:06;3.17;;;1.67;;
5795;SDS011;2924;51.458;7.046;2023-08-08T11:09:32;6.67;;;2.30;;
5795;SDS011;2924;51.458;7.046;2023-08-08T11:11:57;5.20;;;2.40;;
5795;SDS011;2924;51.458;7.046;2023-08-08T11:14:23;12.63;;;3.43;;
5795;SDS011;2924;51.458;7.046;2023-08-08T11:16:49;10.17;;;2.63;;
5795;SDS011;2924;51.458;7.046;2023-08-08T11:19:16;4.03;;;2.00;;
5795;SDS011;2924;51.458;7.046;2023-08-08T11:21:42;10.47;;;2.30;;
5795;SDS011;2924;51.458;7.046;2023-08-08T11:24:09;4.77;;;2.20;;
5795;SDS011;2924;51.458;7.046;2023-08-08T11:26:35;7.13;;;1.93;;
5795;SDS011;2924;51.458;7.046;2023-08-08T11:29:02;4.00;;;1.90;;
5795;SDS011;2924;51.458;7.046;2023-08-08T11:31:29;10.97;;;2.27;;
5795;SDS011;2924;51.458;7.046;2023-08-08T11:33:55;7.03;;;1.60;;
5795;SDS011;2924;51.458;7.046;2023-08-08T11:36:21;3.57;;;1.47;;
5795;SDS011;2924;51.458;7.046;2023-08-08T11:38:48;5.13;;;2.10;;
5795;SDS011;2924;51.458;7.046;2023-08-08T11:41:15;6.97;;;2.43;;
5795;SDS011;2924;51.458;7.046;2023-08-08T11:43:43;4.97;;;1.80;;
5795;SDS011;2924;51.458;7.046;2023-08-08T11:46:11;7.20;;;2.13;;
5795;SDS011;2924;51.458;7.046;2023-08-08T11:48:38;5.60;;;2.07;;
5795;SDS011;2924;51.458;7.046;2023-08-08T11:51:04;5.03;;;2.03;;
5795;SDS011;2924;51.458;7.046;2023-08-08T11:53:30;5.07;;;2.10;;
5795;SDS011;2924;51.458;7.046;2023-08-08T11:55:56;5.47;;;2.43;;
5795;SDS011;2924;51.458;7.046;2023-08-08T11:58:24;7.13;;;2.20;;
5795;SDS011;2924;51.458;7.046;2023-08-08T12:00:50;3.43;;;2.00;;
5795;SDS011;2924;51.458;7.046;2023-08-08T12:03:17;6.50;;;2.27;;
5795;SDS011;2924;51.458;7.046;2023-08-08T12:05:45;5.60;;;1.70;;
5795;SDS011;2924;51.458;7.046;2023-08-08T12:08:11;2.97;;;1.63;;
5795;SDS011;2924;51.458;7.046;2023-08-08T12:10:38;4.40;;;1.77;;
5795;SDS011;2924;51.458;7.046;2023-08-08T12:13:04;3.90;;;2.00;;
5795;SDS011;2924;51.458;7.046;2023-08-08T12:18:00;7.13;;;1.90;;
5795;SDS011;2924;51.458;7.046;2023-08-08T12:20:27;6.60;;;2.13;;
5795;SDS011;2924;51.458;7.046;2023-08-08T12:22:54;7.97;;;2.33;;
5795;SDS011;2924;51.458;7.046;2023-08-08T12:25:20;4.23;;;1.80;;
5795;SDS011;2924;51.458;7.046;2023-08-08T12:27:46;9.03;;;2.60;;
5795;SDS011;2924;51.458;7.046;2023-08-08T12:30:11;4.83;;;1.90;;
5795;SDS011;2924;51.458;7.046;2023-08-08T12:32:37;3.80;;;1.77;;
5795;SDS011;2924;51.458;7.046;2023-08-08T12:35:03;9.90;;;1.90;;
5795;SDS011;2924;51.458;7.046;2023-08-08T12:37:29;4.23;;;1.63;;
5795;SDS011;2924;51.458;7.046;2023-08-08T12:39:54;5.00;;;2.53;;
5795;SDS011;2924;51.458;7.046;2023-08-08T12:42:20;4.73;;;2.00;;
5795;SDS011;2924;51.458;7.046;2023-08-08T12:44:46;7.80;;;1.67;;
5795;SDS011;2924;51.458;7.046;2023-08-08T12:47:12;4.03;;;2.07;;
5795;SDS011;2924;51.458;7.046;2023-08-08T12:49:39;2.50;;;1.47;;
5795;SDS011;2924;51.458;7.046;2023-08-08T12:52:04;6.70;;;2.50;;
5795;SDS011;2924;51.458;7.046;2023-08-08T12:54:30;4.90;;;1.90;;
5795;SDS011;2924;51.458;7.046;2023-08-08T12:56:55;4.90;;;2.40;;
5795;SDS011;2924;51.458;7.046;2023-08-08T12:59:21;6.60;;;2.43;;
5795;SDS011;2924;51.458;7.046;2023-08-08T13:01:46;6.60;;;3.70;;
5795;SDS011;2924;51.458;7.046;2023-08-08T13:04:12;5.27;;;2.47;;
5795;SDS011;2924;51.458;7.046;2023-08-08T13:06:38;3.23;;;2.10;;
5795;SDS011;2924;51.458;7.046;2023-08-08T13:09:04;4.37;;;2.27;;
5795;SDS011;2924;51.458;7.046;2023-08-08T13:11:30;7.23;;;1.70;;
5795;SDS011;2924;51.458;7.046;2023-08-08T13:13:55;7.60;;;2.10;;
5795;SDS011;2924;51.458;7.046;2023-08-08T13:16:21;7.77;;;3.03;;
5795;SDS011;2924;51.458;7.046;2023-08-08T13:18:47;13.97;;;2.30;;
5795;SDS011;2924;51.458;7.046;2023-08-08T13:21:12;7.73;;;1.77;;
5795;SDS011;2924;51.458;7.046;2023-08-08T13:23:38;4.07;;;2.20;;
5795;SDS011;2924;51.458;7.046;2023-08-08T13:26:05;6.97;;;1.87;;
5795;SDS011;2924;51.458;7.046;2023-08-08T13:28:30;3.30;;;2.10;;
5795;SDS011;2924;51.458;7.046;2023-08-08T13:30:56;2.43;;;1.73;;
5795;SDS011;2924;51.458;7.046;2023-08-08T13:33:22;12.17;;;2.47;;
5795;SDS011;2924;51.458;7.046;2023-08-08T13:35:47;5.80;;;1.50;;
5795;SDS011;2924;51.458;7.046;2023-08-08T13:38:13;6.83;;;2.20;;
5795;SDS011;2924;51.458;7.046;2023-08-08T13:40:42;5.83;;;1.90;;
5795;SDS011;2924;51.458;7.046;2023-08-08T13:43:09;7.50;;;1.40;;
5795;SDS011;2924;51.458;7.046;2023-08-08T13:45:34;3.70;;;1.50;;
5795;SDS011;2924;51.458;7.046;2023-08-08T13:48:00;5.23;;;1.37;;
5795;SDS011;2924;51.458;7.046;2023-08-08T13:50:26;4.43;;;1.30;;
5795;SDS011;2924;51.458;7.046;2023-08-08T13:52:52;5.63;;;1.90;;
5795;SDS011;2924;51.458;7.046;2023-08-08T13:55:22;3.97;;;2.10;;
5795;SDS011;2924;51.458;7.046;2023-08-08T13:57:47;3.53;;;1.57;;
5795;SDS011;2924;51.458;7.046;2023-08-08T14:00:13;4.87;;;1.70;;
5795;SDS011;2924;51.458;7.046;2023-08-08T14:02:39;2.80;;;2.10;;
5795;SDS011;2924;51.458;7.046;2023-08-08T14:05:05;9.57;;;1.90;;
5795;SDS011;2924;51.458;7.046;2023-08-08T14:07:34;3.57;;;1.20;;
5795;SDS011;2924;51.458;7.046;2023-08-08T14:10:00;4.60;;;1.50;;
5795;SDS011;2924;51.458;7.046;2023-08-08T14:12:27;10.63;;;1.30;;
5795;SDS011;2924;51.458;7.046;2023-08-08T14:14:52;1.57;;;1.30;;
5795;SDS011;2924;51.458;7.046;2023-08-08T14:17:18;1.37;;;1.27;;
5795;SDS011;2924;51.458;7.046;2023-08-08T14:19:43;5.20;;;2.00;;
5795;SDS011;2924;51.458;7.046;2023-08-08T14:22:09;3.77;;;1.80;;
5795;SDS011;2924;51.458;7.046;2023-08-08T14:24:35;3.53;;;1.50;;
5795;SDS011;2924;51.458;7.046;2023-08-08T14:27:01;1.43;;;1.00;;
5795;SDS011;2924;51.458;7.046;2023-08-08T14:29:27;3.30;;;1.40;;
5795;SDS011;2924;51.458;7.046;2023-08-08T14:31:52;2.40;;;1.47;;
5795;SDS011;2924;51.458;7.046;2023-08-08T14:34:18;2.07;;;1.40;;
5795;SDS011;2924;51.458;7.046;2023-08-08T14:36:44;3.17;;;1.23;;
5795;SDS011;2924;51.458;7.046;2023-08-08T14:39:10;2.17;;;1.50;;
5795;SDS011;2924;51.458;7.046;2023-08-08T14:41:36;1.60;;;1.50;;
5795;SDS011;2924;51.458;7.046;2023-08-08T14:44:02;7.13;;;1.90;;
5795;SDS011;2924;51.458;7.046;2023-08-08T14:46:27;3.53;;;1.40;;
5795;SDS011;2924;51.458;7.046;2023-08-08T14:48:54;2.73;;;2.10;;
5795;SDS011;2924;51.458;7.046;2023-08-08T14:51:20;2.40;;;1.13;;
5795;SDS011;2924;51.458;7.046;2023-08-08T14:53:45;3.83;;;2.20;;
5795;SDS011;2924;51.458;7.046;2023-08-08T14:56:11;7.07;;;2.43;;
5795;SDS011;2924;51.458;7.046;2023-08-08T14:58:36;4.63;;;2.33;;
5795;SDS011;2924;51.458;7.046;2023-08-08T15:01:02;2.50;;;1.50;;
5795;SDS011;2924;51.458;7.046;2023-08-08T15:03:27;2.50;;;1.60;;
5795;SDS011;2924;51.458;7.046;2023-08-08T15:05:53;5.60;;;2.33;;
5795;SDS011;2924;51.458;7.046;2023-08-08T15:08:19;2.90;;;1.40;;
5795;SDS011;2924;51.458;7.046;2023-08-08T15:10:46;1.10;;;0.97;;